createdAt,value
2018-11-11T00:01:58.381Z,31.97
2018-11-11T00:04:26.682Z,29.03
2018-11-11T00:06:55.079Z,31.03
2018-11-11T00:09:23.486Z,32.07
2018-11-11T00:11:51.830Z,30.83
2018-11-11T00:14:20.143Z,30.77
2018-11-11T00:16:48.524Z,29.70
2018-11-11T00:19:16.793Z,29.87
2018-11-11T00:21:45.193Z,30.27
2018-11-11T00:24:13.406Z,32.47
2018-11-11T00:26:41.596Z,42.83
2018-11-11T00:29:09.911Z,40.30
2018-11-11T00:31:38.366Z,32.80
2018-11-11T00:34:06.684Z,31.23
2018-11-11T00:36:35.080Z,29.57
2018-11-11T00:39:04.029Z,33.03
2018-11-11T00:41:32.276Z,36.60
2018-11-11T00:44:00.692Z,43.67
2018-11-11T00:46:29.031Z,39.33
2018-11-11T00:48:57.363Z,43.40
2018-11-11T00:51:25.635Z,35.63
2018-11-11T00:53:53.918Z,40.20
2018-11-11T00:56:22.194Z,37.90
2018-11-11T00:58:50.534Z,34.70
2018-11-11T01:01:18.805Z,34.30
2018-11-11T01:03:47.189Z,32.57
2018-11-11T01:06:15.779Z,31.50
2018-11-11T01:08:44.234Z,29.27
2018-11-11T01:11:12.633Z,30.27
2018-11-11T01:13:41.193Z,30.40
2018-11-11T01:16:09.608Z,38.40
2018-11-11T01:18:37.936Z,41.03
2018-11-11T01:21:06.245Z,34.87
2018-11-11T01:23:34.545Z,30.77
2018-11-11T01:26:02.839Z,35.33
2018-11-11T01:28:31.258Z,38.73
2018-11-11T01:30:59.585Z,31.37
2018-11-11T01:33:27.903Z,31.17
2018-11-11T01:35:56.235Z,44.60
2018-11-11T01:38:24.697Z,39.00
2018-11-11T01:40:52.957Z,33.57
2018-11-11T01:43:21.257Z,36.27
2018-11-11T01:45:49.597Z,33.07
2018-11-11T01:48:17.938Z,34.63
2018-11-11T01:50:46.226Z,31.93
2018-11-11T01:53:14.637Z,31.73
2018-11-11T01:55:42.973Z,30.57
2018-11-11T01:58:11.320Z,30.43
2018-11-11T02:00:39.608Z,31.53
2018-11-11T02:03:07.912Z,34.20
2018-11-11T02:05:36.163Z,34.50
2018-11-11T02:08:05.689Z,34.87
2018-11-11T02:10:34.028Z,33.23
2018-11-11T02:13:02.329Z,32.57
2018-11-11T02:15:30.737Z,31.37
2018-11-11T02:17:59.045Z,30.60
2018-11-11T02:20:27.323Z,30.67
2018-11-11T02:22:55.605Z,31.23
2018-11-11T02:25:24.421Z,31.37
2018-11-11T02:27:52.735Z,31.30
2018-11-11T02:30:22.070Z,31.33
2018-11-11T02:32:50.356Z,32.70
2018-11-11T02:35:18.903Z,32.83
2018-11-11T02:37:47.251Z,34.20
2018-11-11T02:40:19.687Z,36.80
2018-11-11T02:42:48.701Z,36.30
2018-11-11T02:45:17.984Z,32.57
2018-11-11T02:47:46.246Z,31.67
2018-11-11T02:50:15.711Z,35.67
2018-11-11T02:52:44.489Z,35.37
2018-11-11T02:55:13.396Z,34.73
2018-11-11T02:57:41.941Z,30.97
2018-11-11T03:00:13.013Z,31.10
2018-11-11T03:02:41.895Z,30.70
2018-11-11T03:05:11.356Z,30.77
2018-11-11T03:07:39.856Z,31.53
2018-11-11T03:10:09.213Z,31.30
2018-11-11T03:12:37.731Z,31.90
2018-11-11T03:15:06.842Z,31.80
2018-11-11T03:17:35.195Z,30.00
2018-11-11T03:20:03.590Z,31.03
2018-11-11T03:22:32.140Z,30.13
2018-11-11T03:25:00.493Z,30.50
2018-11-11T03:27:28.779Z,30.77
2018-11-11T03:29:57.368Z,32.17
2018-11-11T03:32:25.677Z,31.10
2018-11-11T03:34:54.027Z,37.40
2018-11-11T03:37:22.535Z,37.17
2018-11-11T03:39:50.896Z,32.87
2018-11-11T03:42:19.158Z,30.60
2018-11-11T03:44:47.422Z,31.83
2018-11-11T03:47:15.706Z,30.30
2018-11-11T03:49:43.985Z,30.97
2018-11-11T03:52:12.362Z,29.43
2018-11-11T03:54:42.996Z,31.00
2018-11-11T03:57:11.538Z,32.47
2018-11-11T03:59:39.800Z,32.27
2018-11-11T04:02:08.025Z,32.03
2018-11-11T04:04:37.082Z,29.83
2018-11-11T04:07:05.341Z,30.20
2018-11-11T04:09:33.677Z,31.77
2018-11-11T04:12:02.029Z,30.37
2018-11-11T04:14:30.376Z,29.77
2018-11-11T04:16:58.696Z,29.67
2018-11-11T04:19:26.929Z,30.33
2018-11-11T04:21:55.208Z,30.20
2018-11-11T04:24:23.454Z,29.77
2018-11-11T04:26:51.755Z,30.63
2018-11-11T04:29:20.202Z,30.30
2018-11-11T04:31:48.477Z,30.03
2018-11-11T04:34:16.768Z,29.90
2018-11-11T04:36:45.227Z,29.80
2018-11-11T04:39:13.600Z,30.83
2018-11-11T04:41:41.883Z,30.63
2018-11-11T04:44:10.169Z,30.73
2018-11-11T04:46:38.426Z,30.60
2018-11-11T04:49:06.695Z,28.93
2018-11-11T04:51:34.947Z,29.07
2018-11-11T04:54:03.220Z,30.57
2018-11-11T04:56:31.593Z,29.27
2018-11-11T04:58:59.896Z,30.07
2018-11-11T05:01:28.296Z,30.60
2018-11-11T05:03:56.564Z,30.93
2018-11-11T05:06:24.870Z,30.67
2018-11-11T05:08:53.210Z,29.67
2018-11-11T05:11:21.510Z,29.47
2018-11-11T05:13:50.111Z,30.23
2018-11-11T05:16:18.435Z,30.13
2018-11-11T05:18:46.739Z,31.23
2018-11-11T05:21:15.036Z,28.73
2018-11-11T05:23:43.456Z,29.53
2018-11-11T05:26:11.679Z,30.83
2018-11-11T05:28:40.031Z,29.80
2018-11-11T05:31:08.301Z,30.30
2018-11-11T05:33:36.709Z,29.07
2018-11-11T05:36:06.067Z,29.37
2018-11-11T05:38:34.346Z,29.17
2018-11-11T05:41:02.728Z,30.73
2018-11-11T05:43:31.289Z,31.77
2018-11-11T05:45:59.622Z,29.73
2018-11-11T05:48:28.061Z,30.17
2018-11-11T05:50:56.409Z,29.80
2018-11-11T05:53:24.955Z,31.90
2018-11-11T05:55:53.367Z,31.43
2018-11-11T05:58:21.708Z,30.07
2018-11-11T06:00:50.227Z,29.83
2018-11-11T06:03:20.020Z,30.03
2018-11-11T06:05:50.172Z,31.00
2018-11-11T06:08:18.730Z,28.47
2018-11-11T06:10:47.120Z,30.53
2018-11-11T06:13:15.549Z,30.13
2018-11-11T06:15:44.137Z,29.13
2018-11-11T06:18:12.419Z,28.93
2018-11-11T06:20:40.820Z,27.50
2018-11-11T06:23:09.067Z,29.70
2018-11-11T06:25:37.531Z,29.13
2018-11-11T06:28:05.901Z,30.70
2018-11-11T06:30:34.273Z,29.97
2018-11-11T06:33:02.652Z,29.23
2018-11-11T06:35:31.031Z,29.37
2018-11-11T06:37:59.416Z,28.93
2018-11-11T06:40:27.749Z,30.13
2018-11-11T06:42:56.140Z,30.53
2018-11-11T06:45:24.494Z,29.27
2018-11-11T06:47:52.882Z,29.10
2018-11-11T06:50:21.231Z,29.47
2018-11-11T06:52:49.490Z,28.77
2018-11-11T06:55:17.786Z,28.97
2018-11-11T06:57:46.254Z,28.83
2018-11-11T07:00:15.634Z,29.47
2018-11-11T07:02:55.324Z,28.53
2018-11-11T07:05:23.638Z,27.53
2018-11-11T07:07:52.114Z,29.43
2018-11-11T07:10:20.671Z,28.37
2018-11-11T07:12:49.067Z,30.90
2018-11-11T07:15:17.383Z,28.77
2018-11-11T07:17:46.169Z,29.13
2018-11-11T07:20:15.090Z,28.47
2018-11-11T07:22:44.025Z,29.80
2018-11-11T07:25:12.570Z,28.77
2018-11-11T07:27:40.965Z,27.60
2018-11-11T07:30:09.322Z,27.67
2018-11-11T07:32:37.755Z,28.73
2018-11-11T07:35:07.539Z,27.10
2018-11-11T07:37:36.341Z,27.60
2018-11-11T07:40:06.575Z,27.10
2018-11-11T07:42:34.988Z,27.47
2018-11-11T07:45:03.465Z,27.60
2018-11-11T07:47:31.875Z,26.27
2018-11-11T07:50:00.421Z,26.53
2018-11-11T07:52:28.765Z,26.80
2018-11-11T07:54:57.105Z,26.80
2018-11-11T07:57:25.389Z,27.30
2018-11-11T07:59:53.719Z,28.57
2018-11-11T08:02:22.072Z,27.50
2018-11-11T08:04:50.331Z,26.43
2018-11-11T08:07:18.779Z,28.10
2018-11-11T08:09:47.754Z,28.43
2018-11-11T08:12:16.085Z,28.17
2018-11-11T08:14:44.460Z,29.13
2018-11-11T08:17:12.799Z,25.83
2018-11-11T08:19:41.110Z,26.83
2018-11-11T08:22:09.653Z,27.30
2018-11-11T08:24:37.977Z,27.00
2018-11-11T08:27:06.354Z,27.37
2018-11-11T08:29:34.798Z,27.27
2018-11-11T08:32:03.812Z,28.10
2018-11-11T08:34:32.182Z,26.63
2018-11-11T08:37:00.805Z,29.07
2018-11-11T08:39:29.250Z,28.67
2018-11-11T08:41:59.179Z,28.13
2018-11-11T08:44:27.732Z,27.07
2018-11-11T08:46:56.874Z,28.43
2018-11-11T08:49:25.320Z,27.80
2018-11-11T08:51:53.622Z,27.70
2018-11-11T08:54:22.108Z,27.80
2018-11-11T08:56:50.589Z,28.20
2018-11-11T08:59:42.842Z,28.37
2018-11-11T09:02:11.466Z,37.87
2018-11-11T09:04:46.370Z,34.73
2018-11-11T09:07:14.901Z,28.63
2018-11-11T09:09:43.178Z,28.00
2018-11-11T09:12:11.481Z,27.30
2018-11-11T09:14:39.929Z,29.00
2018-11-11T09:17:08.382Z,31.17
2018-11-11T09:19:36.803Z,41.77
2018-11-11T09:22:05.879Z,42.63
2018-11-11T09:24:34.260Z,35.87
2018-11-11T09:27:06.978Z,33.00
2018-11-11T09:29:35.938Z,31.40
2018-11-11T09:32:04.468Z,30.17
2018-11-11T09:34:33.137Z,28.97
2018-11-11T09:37:01.599Z,33.80
2018-11-11T09:39:30.080Z,31.83
2018-11-11T09:41:58.451Z,29.23
2018-11-11T09:44:26.883Z,30.00
2018-11-11T09:46:55.323Z,28.23
2018-11-11T09:49:24.611Z,26.07
2018-11-11T09:51:53.153Z,28.40
2018-11-11T09:54:21.611Z,27.23
2018-11-11T09:56:49.849Z,26.67
2018-11-11T09:59:18.169Z,31.53
2018-11-11T10:01:46.446Z,44.53
2018-11-11T10:04:21.776Z,47.33
2018-11-11T10:06:56.332Z,37.83
2018-11-11T10:09:33.822Z,31.27
2018-11-11T10:12:07.378Z,28.23
2018-11-11T10:14:41.118Z,27.30
2018-11-11T10:17:14.855Z,28.30
2018-11-11T10:19:51.070Z,27.30
2018-11-11T10:22:23.789Z,26.17
2018-11-11T10:24:59.708Z,26.87
2018-11-11T10:27:52.557Z,27.93
2018-11-11T10:30:27.062Z,26.37
2018-11-11T10:33:15.279Z,26.80
2018-11-11T10:35:48.377Z,27.10
2018-11-11T10:38:20.403Z,47.87
2018-11-11T10:40:58.462Z,36.57
2018-11-11T10:43:33.133Z,31.13
2018-11-11T10:46:06.633Z,27.47
2018-11-11T10:48:38.585Z,27.73
2018-11-11T10:51:07.347Z,29.50
2018-11-11T10:53:35.795Z,39.20
2018-11-11T10:56:04.371Z,49.87
2018-11-11T10:58:32.789Z,41.30
2018-11-11T11:01:06.591Z,40.00
2018-11-11T11:03:36.393Z,41.90
2018-11-11T11:06:05.151Z,37.23
2018-11-11T11:08:33.575Z,29.60
2018-11-11T11:11:02.294Z,26.47
2018-11-11T11:13:31.091Z,26.83
2018-11-11T11:16:00.301Z,25.17
2018-11-11T11:18:29.131Z,25.40
2018-11-11T11:20:57.694Z,24.43
2018-11-11T11:23:26.170Z,24.77
2018-11-11T11:25:55.501Z,24.23
2018-11-11T11:28:24.122Z,24.67
2018-11-11T11:30:52.490Z,61.90
2018-11-11T11:33:25.965Z,50.70
2018-11-11T11:35:54.602Z,29.60
2018-11-11T11:38:23.174Z,24.83
2018-11-11T11:40:51.548Z,24.57
2018-11-11T11:43:20.133Z,24.07
2018-11-11T11:45:48.641Z,22.90
2018-11-11T11:48:17.193Z,22.50
2018-11-11T11:50:45.595Z,24.13
2018-11-11T11:53:13.996Z,22.63
2018-11-11T11:55:43.096Z,22.87
2018-11-11T11:58:18.384Z,23.27
2018-11-11T12:00:46.772Z,23.50
2018-11-11T12:03:15.683Z,23.57
2018-11-11T12:05:45.136Z,25.03
2018-11-11T12:08:13.743Z,38.90
2018-11-11T12:10:42.253Z,46.27
2018-11-11T12:13:12.079Z,39.27
2018-11-11T12:15:41.568Z,38.67
2018-11-11T12:18:10.044Z,45.23
2018-11-11T12:20:38.955Z,36.00
2018-11-11T12:23:08.151Z,25.63
2018-11-11T12:25:37.564Z,24.23
2018-11-11T12:28:06.185Z,23.63
2018-11-11T12:30:34.728Z,21.97
2018-11-11T12:33:03.046Z,22.33
2018-11-11T12:35:31.579Z,24.43
2018-11-11T12:38:00.436Z,23.90
2018-11-11T12:40:28.887Z,22.90
2018-11-11T12:42:57.257Z,23.13
2018-11-11T12:45:25.783Z,23.27
2018-11-11T12:47:54.467Z,23.37
2018-11-11T12:50:23.036Z,23.27
2018-11-11T12:52:51.509Z,23.53
2018-11-11T12:55:20.033Z,23.33
2018-11-11T12:57:48.442Z,24.07
2018-11-11T13:00:18.206Z,23.53
2018-11-11T13:02:46.521Z,24.03
2018-11-11T13:05:15.066Z,24.80
2018-11-11T13:07:43.581Z,33.67
2018-11-11T13:10:13.164Z,32.97
2018-11-11T13:12:42.833Z,32.77
2018-11-11T13:15:12.705Z,36.30
2018-11-11T13:17:41.679Z,31.00
2018-11-11T13:20:15.658Z,31.80
2018-11-11T13:22:44.469Z,27.60
2018-11-11T13:25:13.980Z,26.73
2018-11-11T13:27:42.874Z,25.23
2018-11-11T13:30:12.955Z,25.07
2018-11-11T13:32:41.478Z,23.33
2018-11-11T13:35:12.130Z,21.83
2018-11-11T13:37:40.668Z,23.77
2018-11-11T13:40:11.794Z,22.10
2018-11-11T13:42:40.480Z,22.90
2018-11-11T13:45:11.423Z,21.70
2018-11-11T13:47:40.267Z,22.07
2018-11-11T13:50:12.001Z,22.53
2018-11-11T13:52:40.404Z,22.20
2018-11-11T13:55:10.072Z,20.53
2018-11-11T13:57:38.624Z,22.00
2018-11-11T14:00:10.986Z,22.37
2018-11-11T14:02:39.564Z,21.60
2018-11-11T14:05:09.261Z,20.77
2018-11-11T14:07:37.731Z,20.83
2018-11-11T14:10:07.856Z,20.27
2018-11-11T14:12:37.149Z,20.00
2018-11-11T14:15:08.767Z,21.63
2018-11-11T14:17:37.152Z,20.90
2018-11-11T14:20:07.063Z,20.37
2018-11-11T14:22:35.476Z,20.77
2018-11-11T14:25:04.264Z,19.57
2018-11-11T14:27:32.547Z,20.60
2018-11-11T14:30:00.997Z,19.30
2018-11-11T14:32:29.512Z,19.67
2018-11-11T14:34:57.885Z,18.97
2018-11-11T14:37:26.187Z,19.37
2018-11-11T14:39:54.626Z,17.77
2018-11-11T14:42:22.992Z,17.27
2018-11-11T14:44:51.438Z,17.40
2018-11-11T14:47:19.788Z,18.00
2018-11-11T14:49:48.264Z,17.67
2018-11-11T14:52:16.697Z,16.77
2018-11-11T14:54:45.021Z,17.30
2018-11-11T14:57:13.448Z,17.57
2018-11-11T14:59:42.245Z,18.00
2018-11-11T15:02:10.641Z,17.20
2018-11-11T15:04:39.083Z,18.10
2018-11-11T15:07:07.436Z,16.63
2018-11-11T15:09:35.932Z,18.00
2018-11-11T15:12:04.388Z,22.63
2018-11-11T15:14:32.835Z,21.17
2018-11-11T15:17:01.248Z,17.73
2018-11-11T15:19:30.370Z,17.73
2018-11-11T15:21:58.596Z,16.90
2018-11-11T15:24:26.975Z,15.37
2018-11-11T15:26:57.342Z,16.43
2018-11-11T15:29:26.771Z,15.97
2018-11-11T15:31:55.333Z,15.63
2018-11-11T15:34:23.973Z,15.07
2018-11-11T15:36:52.398Z,16.23
2018-11-11T15:39:20.818Z,15.47
2018-11-11T15:41:49.341Z,15.07
2018-11-11T15:44:17.957Z,14.53
2018-11-11T15:46:46.332Z,14.63
2018-11-11T15:49:15.429Z,15.03
2018-11-11T15:51:43.999Z,14.47
2018-11-11T15:54:12.398Z,13.80
2018-11-11T15:56:40.879Z,14.63
2018-11-11T15:59:09.499Z,13.97
2018-11-11T16:01:38.142Z,14.57
2018-11-11T16:04:06.933Z,14.50
2018-11-11T16:06:35.604Z,13.80
2018-11-11T16:09:04.508Z,14.70
2018-11-11T16:11:32.885Z,13.20
2018-11-11T16:14:01.217Z,13.63
2018-11-11T16:16:29.793Z,14.30
2018-11-11T16:18:58.268Z,14.07
2018-11-11T16:21:26.690Z,14.50
2018-11-11T16:23:55.152Z,15.93
2018-11-11T16:26:23.562Z,15.90
2018-11-11T16:28:52.079Z,15.27
2018-11-11T16:31:20.641Z,15.43
2018-11-11T16:33:49.292Z,14.93
2018-11-11T16:36:18.338Z,14.63
2018-11-11T16:38:46.950Z,15.20
2018-11-11T16:41:15.358Z,15.20
2018-11-11T16:43:44.233Z,15.20
2018-11-11T16:46:12.682Z,15.67
2018-11-11T16:48:42.136Z,14.23
2018-11-11T16:51:10.667Z,14.17
2018-11-11T16:53:40.137Z,14.83
2018-11-11T16:56:08.632Z,15.10
2018-11-11T16:58:37.236Z,14.50
2018-11-11T17:01:05.875Z,15.10
2018-11-11T17:03:34.341Z,15.50
2018-11-11T17:06:03.060Z,16.00
2018-11-11T17:08:31.729Z,15.00
2018-11-11T17:11:00.414Z,15.53
2018-11-11T17:13:29.738Z,16.00
2018-11-11T17:15:58.653Z,16.03
2018-11-11T17:18:27.076Z,14.97
2018-11-11T17:20:55.849Z,15.20
2018-11-11T17:23:25.096Z,15.70
2018-11-11T17:25:53.989Z,14.87
2018-11-11T17:28:22.793Z,14.90
2018-11-11T17:30:51.215Z,14.47
2018-11-11T17:33:19.739Z,14.27
2018-11-11T17:35:48.290Z,14.33
2018-11-11T17:38:16.911Z,15.07
2018-11-11T17:40:46.374Z,14.37
2018-11-11T17:43:15.025Z,14.07
2018-11-11T17:45:43.741Z,12.97
2018-11-11T17:48:13.086Z,12.30
2018-11-11T17:50:41.961Z,16.40
2018-11-11T17:53:12.078Z,32.03
2018-11-11T17:55:40.748Z,23.40
2018-11-11T17:58:09.585Z,18.37
2018-11-11T18:00:38.246Z,14.63
2018-11-11T18:03:08.186Z,13.10
2018-11-11T18:05:37.505Z,12.30
2018-11-11T18:08:06.808Z,12.77
2018-11-11T18:10:36.876Z,12.00
2018-11-11T18:13:06.704Z,11.07
2018-11-11T18:15:35.344Z,11.00
2018-11-11T18:18:04.022Z,11.13
2018-11-11T18:20:33.479Z,11.53
2018-11-11T18:23:02.970Z,10.37
2018-11-11T18:25:31.712Z,11.03
2018-11-11T18:28:00.659Z,11.33
2018-11-11T18:30:32.254Z,10.37
2018-11-11T18:33:00.936Z,11.33
2018-11-11T18:35:29.596Z,9.83
2018-11-11T18:37:58.386Z,10.40
2018-11-11T18:40:28.181Z,10.77
2018-11-11T18:42:57.994Z,9.97
2018-11-11T18:45:28.374Z,10.73
2018-11-11T18:47:58.433Z,9.60
2018-11-11T18:50:31.278Z,9.97
2018-11-11T18:53:00.051Z,10.43
2018-11-11T18:55:28.670Z,9.90
2018-11-11T18:57:57.187Z,9.43
2018-11-11T19:00:27.060Z,9.03
2018-11-11T19:02:56.220Z,9.43
2018-11-11T19:05:25.425Z,10.63
2018-11-11T19:07:54.173Z,10.87
2018-11-11T19:10:24.023Z,9.80
2018-11-11T19:12:55.034Z,8.90
2018-11-11T19:15:23.761Z,9.10
2018-11-11T19:17:55.713Z,9.47
2018-11-11T19:20:25.426Z,9.33
2018-11-11T19:22:53.988Z,9.60
2018-11-11T19:25:24.008Z,10.37
2018-11-11T19:27:53.644Z,13.10
2018-11-11T19:30:23.998Z,26.47
2018-11-11T19:32:53.077Z,19.10
2018-11-11T19:35:22.952Z,14.23
2018-11-11T19:37:53.054Z,11.10
2018-11-11T19:40:23.562Z,9.03
2018-11-11T19:42:53.143Z,9.30
2018-11-11T19:45:23.118Z,9.17
2018-11-11T19:47:51.889Z,8.90
2018-11-11T19:50:22.045Z,8.37
2018-11-11T19:52:51.804Z,10.83
2018-11-11T19:55:21.087Z,9.67
2018-11-11T19:57:51.205Z,10.00
2018-11-11T20:00:29.074Z,11.73
2018-11-11T20:02:58.573Z,11.73
2018-11-11T20:05:27.556Z,11.60
2018-11-11T20:07:58.402Z,13.50
2018-11-11T20:10:27.711Z,15.27
2018-11-11T20:12:56.883Z,12.00
2018-11-11T20:15:28.397Z,11.13
2018-11-11T20:18:00.431Z,10.73
2018-11-11T20:20:31.063Z,12.23
2018-11-11T20:23:00.517Z,11.43
2018-11-11T20:25:29.195Z,10.50
2018-11-11T20:28:02.061Z,10.63
2018-11-11T20:30:37.263Z,14.00
2018-11-11T20:33:06.999Z,15.90
2018-11-11T20:35:40.460Z,14.20
2018-11-11T20:38:10.736Z,11.97
2018-11-11T20:40:45.873Z,9.10
2018-11-11T20:43:16.553Z,9.33
2018-11-11T20:45:46.280Z,9.33
2018-11-11T20:48:16.081Z,9.07
2018-11-11T20:50:45.636Z,8.90
2018-11-11T20:53:14.895Z,8.80
2018-11-11T20:55:44.689Z,10.00
2018-11-11T20:58:14.110Z,9.93
2018-11-11T21:00:42.842Z,10.00
2018-11-11T21:03:15.297Z,11.20
2018-11-11T21:05:44.009Z,10.40
2018-11-11T21:08:13.589Z,10.10
2018-11-11T21:10:57.889Z,9.13
2018-11-11T21:13:29.719Z,8.80
2018-11-11T21:15:59.656Z,8.90
2018-11-11T21:18:29.649Z,9.93
2018-11-11T21:21:00.987Z,8.63
2018-11-11T21:23:30.019Z,8.87
2018-11-11T21:25:59.559Z,8.57
2018-11-11T21:28:28.473Z,9.50
2018-11-11T21:30:57.140Z,8.70
2018-11-11T21:33:25.714Z,8.30
2018-11-11T21:35:54.435Z,15.70
2018-11-11T21:38:23.038Z,24.00
2018-11-11T21:40:52.795Z,17.03
2018-11-11T21:43:27.088Z,11.73
2018-11-11T21:45:56.855Z,13.73
2018-11-11T21:48:27.851Z,14.30
2018-11-11T21:50:56.838Z,16.37
2018-11-11T21:53:36.792Z,23.27
2018-11-11T21:56:12.397Z,21.50
2018-11-11T21:58:43.677Z,14.30
2018-11-11T22:01:12.891Z,10.73
2018-11-11T22:03:42.043Z,10.23
2018-11-11T22:06:12.433Z,9.77
2018-11-11T22:08:41.456Z,10.20
2018-11-11T22:11:11.176Z,9.93
2018-11-11T22:13:40.306Z,9.27
2018-11-11T22:16:08.942Z,9.27
2018-11-11T22:18:37.817Z,10.30
2018-11-11T22:21:07.123Z,10.47
2018-11-11T22:23:36.963Z,10.33
2018-11-11T22:26:06.113Z,11.33
2018-11-11T22:28:34.841Z,11.23
2018-11-11T22:31:03.279Z,11.20
2018-11-11T22:33:31.629Z,10.17
2018-11-11T22:36:00.014Z,10.70
2018-11-11T22:38:28.710Z,11.87
2018-11-11T22:40:57.412Z,10.93
2018-11-11T22:43:25.956Z,14.87
2018-11-11T22:45:54.404Z,25.20
2018-11-11T22:48:22.995Z,17.77
2018-11-11T22:50:51.602Z,12.77
2018-11-11T22:53:20.037Z,11.07
2018-11-11T22:56:05.554Z,11.10
2018-11-11T22:58:34.588Z,11.63
2018-11-11T23:01:08.388Z,12.00
2018-11-11T23:03:37.155Z,12.10
2018-11-11T23:06:06.211Z,10.90
2018-11-11T23:08:34.794Z,10.90
2018-11-11T23:11:03.304Z,10.73
2018-11-11T23:13:31.863Z,12.00
2018-11-11T23:16:00.311Z,11.23
2018-11-11T23:18:30.017Z,11.70
2018-11-11T23:20:58.487Z,11.43
2018-11-11T23:23:26.971Z,11.70
2018-11-11T23:25:55.493Z,10.87
2018-11-11T23:28:23.879Z,11.67
2018-11-11T23:30:52.366Z,12.80
2018-11-11T23:33:20.934Z,12.53
2018-11-11T23:35:49.352Z,12.50
2018-11-11T23:38:17.779Z,11.70
2018-11-11T23:40:46.194Z,11.83
2018-11-11T23:43:14.539Z,11.03
2018-11-11T23:45:43.073Z,11.70
2018-11-11T23:48:11.478Z,19.93
2018-11-11T23:50:40.069Z,24.93
2018-11-11T23:53:08.385Z,15.53
2018-11-11T23:55:36.629Z,11.90
2018-11-11T23:58:05.174Z,11.30
